.
WxDataArchive / Data Records for 2006-11-01
2006-10-31 November 2006 2006-11-02

Data Records for Wednesday, 01 November 2006

Time	Temp	Chill	HIndex	Humid	Dewpt	 Wind 	HiWind	WindDir	Rain 	Barom 
-----	----	-----	------	-----	-----	------	------	-------	-----	----- 
00:00	31.8	31.8	31.8	85	27.8	0	0	---	0.00	30.071 
00:05	31.8	31.8	31.8	86	28.1	0	0	---	0.00	30.071 
00:10	31.6	31.6	31.6	86	27.9	0	0	---	0.00	30.071 
00:15	31.5	31.5	31.5	86	27.8	0	0	---	0.00	30.072 
00:20	31.3	31.3	31.3	86	27.6	0	0	---	0.00	30.072 
00:25	31.2	31.2	31.2	86	27.5	0	0	---	0.00	30.072 
00:30	31.0	31.0	31.0	86	27.3	0	0	---	0.00	30.065 
00:35	30.9	30.9	30.9	86	27.2	0	0	---	0.00	30.065 
00:40	30.7	30.7	30.7	87	27.3	0	0	---	0.00	30.065 
00:45	30.6	30.6	30.6	87	27.2	0	0	---	0.00	30.066 
00:50	30.4	30.4	30.4	87	27.0	0	0	---	0.00	30.066 
00:55	30.3	30.3	30.3	88	27.2	0	0	---	0.00	30.066 
01:00	30.4	30.4	30.4	88	27.3	0	0	---	0.00	30.071 
01:05	30.4	30.4	30.4	88	27.3	0	0	---	0.00	30.071 
01:10	30.6	30.6	30.6	89	27.8	0	0	---	0.00	30.071 
01:15	30.6	30.6	30.6	88	27.5	0	0	---	0.00	30.073 
01:20	30.4	30.4	30.4	88	27.3	0	0	---	0.00	30.073 
01:25	30.4	30.4	30.4	88	27.3	0	0	---	0.00	30.073 
01:30	30.3	30.3	30.3	88	27.2	0	0	---	0.00	30.078 
01:35	30.3	30.3	30.3	88	27.2	0	0	---	0.00	30.078 
01:40	30.1	30.1	30.1	88	27.0	0	0	---	0.00	30.078 
01:45	30.0	30.0	30.0	88	26.9	0	0	---	0.00	30.076 
01:50	30.0	30.0	30.0	89	27.2	0	0	---	0.00	30.076 
01:55	30.0	30.0	30.0	89	27.2	0	0	---	0.00	30.076 
02:00	29.8	29.8	29.8	89	27.0	0	0	---	0.00	30.073 
02:05	29.8	29.8	29.8	89	27.0	0	0	---	0.00	30.073 
02:10	29.8	29.8	29.8	89	27.0	0	0	---	0.00	30.073 
02:15	29.8	29.8	29.8	90	27.2	0	0	---	0.00	30.075 
02:20	29.8	29.8	29.8	89	27.0	0	0	---	0.00	30.075 
02:25	30.0	30.0	30.0	89	27.2	0	0	---	0.00	30.075 
02:30	29.8	29.8	29.8	89	27.0	0	0	---	0.00	30.077 
02:35	29.8	29.8	29.8	89	27.0	0	0	---	0.00	30.077 
02:40	30.0	30.0	30.0	90	27.4	0	0	---	0.00	30.077 
02:45	30.1	30.1	30.1	90	27.5	0	0	---	0.00	30.081 
02:50	30.3	30.3	30.3	90	27.7	0	0	---	0.00	30.081 
02:55	30.3	30.3	30.3	90	27.7	0	0	---	0.00	30.081 
03:00	30.3	30.3	30.3	90	27.7	0	0	---	0.00	30.080 
03:05	30.4	30.4	30.4	90	27.8	0	0	---	0.00	30.080 
03:10	30.4	30.4	30.4	90	27.8	0	0	---	0.00	30.080 
03:15	30.6	30.6	30.6	90	28.0	0	0	---	0.00	30.077 
03:20	30.6	30.6	30.6	90	28.0	0	0	---	0.00	30.077 
03:25	30.6	30.6	30.6	89	27.8	0	0	---	0.00	30.077 
03:30	30.6	30.6	30.6	89	27.8	0	0	---	0.00	30.076 
03:35	30.6	30.6	30.6	89	27.8	0	0	---	0.00	30.076 
03:40	30.4	30.4	30.4	89	27.6	0	0	---	0.00	30.076 
03:45	30.4	30.4	30.4	89	27.6	0	0	---	0.00	30.078 
03:50	30.4	30.4	30.4	89	27.6	0	0	---	0.00	30.078 
03:55	30.4	30.4	30.4	89	27.6	0	0	---	0.00	30.078 
04:00	30.3	30.3	30.3	89	27.5	0	0	---	0.00	30.079 
04:05	30.3	30.3	30.3	89	27.5	0	0	---	0.00	30.079 
04:10	30.3	30.3	30.3	89	27.5	0	0	---	0.00	30.079 
04:15	30.1	30.1	30.1	89	27.3	0	0	---	0.00	30.083 
04:20	30.1	30.1	30.1	89	27.3	0	0	---	0.00	30.083 
04:25	30.0	30.0	30.0	89	27.2	0	0	---	0.00	30.083 
04:30	30.0	30.0	30.0	88	26.9	0	0	---	0.00	30.087 
04:35	29.8	29.8	29.8	89	27.0	0	0	---	0.00	30.087 
04:40	29.7	29.7	29.7	89	26.9	0	0	---	0.00	30.087 
04:45	29.7	29.7	29.7	89	26.9	0	0	---	0.00	30.089 
04:50	29.7	29.7	29.7	89	26.9	0	0	---	0.00	30.089 
04:55	29.5	29.5	29.5	89	26.7	0	0	---	0.00	30.089 
05:00	29.5	29.5	29.5	89	26.7	0	0	---	0.00	30.093 
05:05	29.5	29.5	29.5	89	26.7	0	0	---	0.00	30.093 
05:10	29.7	29.7	29.7	90	27.1	0	0	---	0.00	30.093 
05:15	29.7	29.7	29.7	90	27.1	0	0	---	0.00	30.096 
05:20	29.7	29.7	29.7	90	27.1	0	0	---	0.00	30.096 
05:25	30.0	30.0	30.0	91	27.7	0	0	---	0.00	30.096 
05:30	30.1	30.1	30.1	91	27.8	0	0	---	0.00	30.089 
05:35	30.3	30.3	30.3	91	28.0	0	0	---	0.00	30.089 
05:40	30.4	30.4	30.4	91	28.1	0	0	---	0.00	30.089 
05:45	30.7	30.7	30.7	91	28.4	0	0	---	0.00	30.093 
05:50	30.9	30.9	30.9	90	28.3	0	1	292	0.00	30.093 
05:55	31.0	31.0	31.0	90	28.4	0	0	---	0.00	30.093 
06:00	31.0	31.0	31.0	89	28.1	0	0	---	0.00	30.096 
06:05	31.2	31.2	31.2	89	28.3	0	0	---	0.00	30.096 
06:10	31.2	31.2	31.2	89	28.3	0	0	---	0.00	30.096 
06:15	31.3	31.3	31.3	88	28.2	0	0	---	0.00	30.098 
06:20	31.3	31.3	31.3	88	28.2	0	0	---	0.00	30.098 
06:25	31.3	31.3	31.3	87	27.9	0	0	---	0.00	30.098 
06:30	31.2	31.2	31.2	87	27.8	0	0	---	0.00	30.098 
06:35	31.2	31.2	31.2	87	27.8	0	0	---	0.00	30.098 
06:40	31.0	31.0	31.0	87	27.6	0	0	---	0.00	30.098 
06:45	30.7	30.7	30.7	87	27.3	0	0	---	0.00	30.095 
06:50	30.6	30.6	30.6	87	27.2	0	0	---	0.00	30.095 
06:55	30.4	30.4	30.4	87	27.0	0	0	---	0.00	30.095 
07:00	30.3	30.3	30.3	88	27.2	0	0	---	0.00	30.101 
07:05	30.1	30.1	30.1	88	27.0	0	0	---	0.00	30.101 
07:10	30.0	30.0	30.0	89	27.2	0	0	---	0.00	30.101 
07:15	29.8	29.8	29.8	89	27.0	0	0	---	0.00	30.116 
07:20	29.7	29.7	29.7	89	26.9	0	0	---	0.00	30.116 
07:25	29.7	29.7	29.7	89	26.9	0	0	---	0.00	30.116 
07:30	29.7	29.7	29.7	90	27.1	0	0	---	0.00	30.122 
07:35	29.8	29.8	29.8	90	27.2	0	0	---	0.00	30.122 
07:40	30.1	30.1	30.1	91	27.8	0	0	---	0.00	30.122 
07:45	30.3	30.3	30.3	90	27.7	0	0	---	0.00	30.125 
07:50	30.4	30.4	30.4	90	27.8	0	0	---	0.00	30.125 
07:55	30.7	30.7	30.7	91	28.4	0	0	---	0.00	30.125 
08:00	31.2	31.2	31.2	90	28.6	0	0	---	0.00	30.126 
08:05	31.6	31.6	31.6	89	28.7	0	0	---	0.00	30.126 
08:10	31.9	31.9	31.9	88	28.8	0	0	---	0.00	30.126 
08:15	32.2	32.2	32.2	88	29.1	0	0	---	0.00	30.133 
08:20	32.5	32.5	32.5	87	29.1	0	0	---	0.00	30.133 
08:25	32.7	32.7	32.7	86	29.0	0	0	---	0.00	30.133 
08:30	33.1	33.1	33.1	86	29.4	0	0	---	0.00	30.133 
08:35	33.7	33.7	33.7	84	29.4	0	0	---	0.00	30.133 
08:40	34.6	34.6	34.6	82	29.7	0	1	292	0.00	30.133 
08:45	35.2	35.2	35.2	80	29.7	0	1	292	0.00	30.134 
08:50	35.8	35.8	35.8	78	29.6	0	1	292	0.00	30.134 
08:55	36.3	36.3	36.3	77	29.8	0	1	292	0.00	30.134 
09:00	36.9	36.9	36.9	74	29.4	0	1	292	0.00	30.132 
09:05	37.2	37.2	37.2	73	29.4	0	1	292	0.00	30.132 
09:10	37.5	37.5	37.5	71	29.0	0	1	292	0.00	30.132 
09:15	37.9	37.9	37.9	70	29.0	0	1	292	0.00	30.140 
09:20	38.2	38.2	38.2	71	29.6	0	1	292	0.00	30.140 
09:25	38.3	38.3	38.3	71	29.7	0	1	292	0.00	30.140 
09:30	38.8	38.8	38.8	69	29.5	0	1	292	0.00	30.143 
09:35	39.3	39.3	39.3	68	29.6	0	2	292	0.00	30.143 
09:40	39.5	39.5	39.5	65	28.7	0	1	292	0.00	30.143 
09:45	39.6	39.6	39.6	65	28.8	0	1	292	0.00	30.141 
09:50	39.9	39.9	39.9	64	28.7	0	2	292	0.00	30.141 
09:55	40.2	40.2	40.2	64	29.0	0	1	292	0.00	30.141 
10:00	40.6	40.6	40.6	61	28.2	0	2	292	0.00	30.141 
10:05	40.9	40.9	40.9	60	28.1	0	2	292	0.00	30.141 
10:10	40.9	40.9	40.9	61	28.5	0	2	292	0.00	30.141 
10:15	41.3	41.3	41.3	58	27.7	1	3	338	0.00	30.138 
10:20	41.5	41.5	41.5	57	27.4	1	2	338	0.00	30.138 
10:25	41.6	41.6	41.6	60	28.8	1	2	338	0.00	30.138 
10:30	41.8	41.8	41.8	56	27.3	1	3	338	0.00	30.136 
10:35	42.3	42.3	42.3	56	27.7	1	3	270	0.00	30.136 
10:40	42.6	42.6	42.6	54	27.1	1	2	270	0.00	30.136 
10:45	42.6	42.6	42.6	54	27.1	1	3	315	0.00	30.135 
10:50	42.6	42.6	42.6	54	27.1	1	4	338	0.00	30.135 
10:55	42.6	42.6	42.6	54	27.1	1	6	315	0.00	30.135 
11:00	42.2	42.2	42.2	54	26.8	1	4	270	0.00	30.134 
11:05	42.2	42.2	42.2	54	26.8	1	3	315	0.00	30.134 
11:10	42.6	42.6	42.6	54	27.1	0	1	315	0.00	30.134 
11:15	42.6	42.6	42.6	51	25.8	1	3	315	0.00	30.131 
11:20	42.8	42.8	42.8	53	26.9	1	4	248	0.00	30.131 
11:25	43.1	43.1	43.1	53	27.1	1	3	270	0.00	30.131 
11:30	43.1	43.1	43.1	50	25.7	1	2	338	0.00	30.127 
11:35	43.6	43.6	43.6	54	28.1	1	4	248	0.00	30.127 
11:40	44.1	44.1	44.1	51	27.1	1	3	248	0.00	30.127 
11:45	44.1	44.1	44.1	50	26.7	1	4	248	0.00	30.122 
11:50	43.9	43.9	43.9	50	26.5	1	5	248	0.00	30.122 
11:55	44.1	44.1	44.1	52	27.6	1	3	248	0.00	30.122 
12:00	44.1	44.1	44.1	53	28.1	2	4	248	0.00	30.116 
12:05	44.3	44.3	44.3	51	27.3	1	4	270	0.00	30.116 
12:10	44.3	44.3	44.3	50	26.8	1	4	292	0.00	30.116 
12:15	44.5	44.5	44.5	51	27.5	1	4	248	0.00	30.112 
12:20	44.5	44.5	44.5	50	27.0	1	3	248	0.00	30.112 
12:25	44.6	44.6	44.6	52	28.1	1	3	248	0.00	30.112 
12:30	44.6	44.6	44.6	51	27.6	1	7	315	0.00	30.100 
12:35	44.8	44.8	44.8	50	27.3	1	3	292	0.00	30.100 
12:40	44.8	44.8	44.8	49	26.8	1	3	315	0.00	30.100 
12:45	44.6	44.6	44.6	49	26.6	1	3	315	0.00	30.094 
12:50	44.6	44.6	44.6	47	25.6	1	3	292	0.00	30.094 
12:55	44.8	44.8	44.8	46	25.3	1	3	315	0.00	30.094 
13:00	45.2	45.2	45.2	49	27.2	1	4	248	0.00	30.083 
13:05	45.7	45.7	45.7	50	28.1	1	6	248	0.00	30.083 
13:10	46.0	46.0	46.0	44	25.3	2	6	270	0.00	30.083 
13:15	45.5	43.7	45.5	41	23.2	4	11	270	0.00	30.082 
13:20	45.4	45.4	45.4	44	24.8	2	7	270	0.00	30.082 
13:25	45.5	45.5	45.5	44	24.9	1	4	270	0.00	30.082 
13:30	45.4	45.4	45.4	43	24.2	1	3	315	0.00	30.084 
13:35	45.2	45.2	45.2	42	23.5	1	3	315	0.00	30.084 
13:40	45.5	45.5	45.5	43	24.3	3	5	248	0.00	30.084 
13:45	45.5	45.5	45.5	42	23.8	2	5	270	0.00	30.081 
13:50	45.5	45.5	45.5	45	25.4	2	5	248	0.00	30.081 
13:55	45.2	45.2	45.2	43	24.0	1	3	248	0.00	30.081 
14:00	45.1	45.1	45.1	43	24.0	2	6	248	0.00	30.076 
14:05	44.8	44.8	44.8	43	23.7	2	5	315	0.00	30.076 
14:10	44.8	44.8	44.8	43	23.7	1	5	315	0.00	30.076 
14:15	44.8	44.8	44.8	46	25.3	2	5	248	0.00	30.068 
14:20	44.8	44.8	44.8	46	25.3	1	3	292	0.00	30.068 
14:25	44.6	44.6	44.6	47	25.6	1	4	292	0.00	30.068 
14:30	44.6	44.6	44.6	45	24.6	2	5	248	0.00	30.073 
14:35	44.5	44.5	44.5	46	25.0	2	4	270	0.00	30.073 
14:40	44.3	44.3	44.3	46	24.8	2	6	270	0.00	30.073 
14:45	44.2	44.2	44.2	46	24.7	2	4	248	0.00	30.074 
14:50	44.2	44.2	44.2	46	24.7	1	4	248	0.00	30.074 
14:55	44.1	44.1	44.1	46	24.7	2	7	270	0.00	30.074 
15:00	43.8	43.8	43.8	46	24.4	2	4	270	0.00	30.076 
15:05	43.6	43.6	43.6	44	23.1	2	4	315	0.00	30.076 
15:10	43.6	43.6	43.6	46	24.2	2	5	270	0.00	30.076 
15:15	43.6	43.6	43.6	44	23.1	1	3	270	0.00	30.074 
15:20	43.6	43.6	43.6	45	23.7	1	4	315	0.00	30.074 
15:25	43.8	43.8	43.8	47	24.9	1	2	292	0.00	30.074 
15:30	43.9	43.9	43.9	46	24.5	1	3	292	0.00	30.069 
15:35	43.8	43.8	43.8	46	24.4	1	4	270	0.00	30.069 
15:40	43.6	43.6	43.6	46	24.2	1	4	248	0.00	30.069 
15:45	43.5	43.5	43.5	46	24.1	1	3	315	0.00	30.070 
15:50	43.5	43.5	43.5	47	24.6	1	5	248	0.00	30.070 
15:55	43.3	43.3	43.3	47	24.4	1	2	315	0.00	30.070 
16:00	43.3	43.3	43.3	45	23.4	1	4	315	0.00	30.070 
16:05	43.2	43.2	43.2	46	23.8	1	2	338	0.00	30.070 
16:10	43.2	43.2	43.2	46	23.8	1	3	315	0.00	30.070 
16:15	43.1	43.1	43.1	45	23.2	1	4	270	0.00	30.081 
16:20	42.8	42.8	42.8	43	21.9	1	3	270	0.00	30.081 
16:25	42.6	42.6	42.6	41	20.6	2	4	292	0.00	30.081 
16:30	42.3	42.3	42.3	40	19.7	1	4	315	0.00	30.086 
16:35	42.3	42.3	42.3	41	20.3	1	2	292	0.00	30.086 
16:40	42.2	42.2	42.2	43	21.3	1	3	292	0.00	30.086 
16:45	42.1	42.1	42.1	43	21.2	1	3	292	0.00	30.085 
16:50	41.9	41.9	41.9	44	21.6	1	3	270	0.00	30.085 
16:55	41.8	41.8	41.8	44	21.5	1	3	270	0.00	30.085 
17:00	41.8	41.8	41.8	43	21.0	1	2	225	0.00	30.083 
17:05	41.6	41.6	41.6	43	20.8	0	2	315	0.00	30.083 
17:10	41.5	41.5	41.5	44	21.2	0	1	315	0.00	30.083 
17:15	41.3	41.3	41.3	44	21.0	0	1	315	0.00	30.080 
17:20	41.1	41.1	41.1	45	21.4	0	1	315	0.00	30.080 
17:25	40.8	40.8	40.8	44	20.6	0	2	315	0.00	30.080 
17:30	40.6	40.6	40.6	45	20.9	1	4	315	0.00	30.084 
17:35	40.5	40.5	40.5	44	20.3	1	2	292	0.00	30.084 
17:40	40.2	40.2	40.2	45	20.6	1	3	315	0.00	30.084 
17:45	40.1	40.1	40.1	43	19.4	1	3	292	0.00	30.089 
17:50	39.8	39.8	39.8	44	19.7	1	3	338	0.00	30.089 
17:55	39.6	39.6	39.6	45	20.0	1	2	315	0.00	30.089 
18:00	39.5	39.5	39.5	45	19.9	1	2	315	0.00	30.099 
18:05	39.3	39.3	39.3	45	19.8	1	2	315	0.00	30.099 
18:10	39.2	39.2	39.2	44	19.1	1	3	315	0.00	30.099 
18:15	39.1	39.1	39.1	45	19.6	1	3	338	0.00	30.105 
18:20	38.8	38.8	38.8	46	19.8	1	4	338	0.00	30.105 
18:25	38.6	38.6	38.6	46	19.6	1	3	315	0.00	30.105 
18:30	38.3	38.3	38.3	47	19.9	0	1	315	0.00	30.108 
18:35	38.0	38.0	38.0	47	19.6	0	3	248	0.00	30.108 
18:40	37.9	37.9	37.9	48	20.0	0	2	248	0.00	30.108 
18:45	37.8	37.8	37.8	49	20.4	0	1	248	0.00	30.119 
18:50	37.5	37.5	37.5	49	20.1	0	2	248	0.00	30.119 
18:55	37.3	37.3	37.3	50	20.4	0	2	292	0.00	30.119 
19:00	37.2	37.2	37.2	51	20.8	1	3	270	0.00	30.121 
19:05	37.0	37.0	37.0	51	20.6	0	2	315	0.00	30.121 
19:10	36.9	36.9	36.9	52	20.9	0	2	315	0.00	30.121 
19:15	36.6	36.6	36.6	52	20.7	1	3	315	0.00	30.121 
19:20	36.6	36.6	36.6	52	20.7	1	3	315	0.00	30.121 
19:25	36.6	36.6	36.6	52	20.7	1	3	292	0.00	30.121 
19:30	36.3	36.3	36.3	51	19.9	1	3	292	0.00	30.127 
19:35	36.2	36.2	36.2	50	19.4	1	3	315	0.00	30.127 
19:40	36.0	36.0	36.0	50	19.2	1	3	315	0.00	30.127 
19:45	35.9	35.9	35.9	51	19.6	1	4	315	0.00	30.129 
19:50	35.8	35.8	35.8	51	19.5	1	4	315	0.00	30.129 
19:55	35.5	35.5	35.5	52	19.6	1	3	338	0.00	30.129 
20:00	35.3	35.3	35.3	52	19.5	1	3	315	0.00	30.129 
20:05	35.0	35.0	35.0	53	19.6	0	2	315	0.00	30.129 
20:10	34.9	34.9	34.9	53	19.5	0	2	315	0.00	30.129 
20:15	34.7	34.7	34.7	54	19.8	0	2	270	0.00	30.124 
20:20	34.6	34.6	34.6	54	19.7	0	1	292	0.00	30.124 
20:25	34.3	34.3	34.3	55	19.8	0	2	315	0.00	30.124 
20:30	34.1	34.1	34.1	55	19.6	0	1	315	0.00	30.124 
20:35	34.0	34.0	34.0	56	20.0	0	3	315	0.00	30.124 
20:40	33.8	33.8	33.8	56	19.8	0	1	270	0.00	30.124 
20:45	33.5	33.5	33.5	57	19.9	0	1	270	0.00	30.124 
20:50	33.5	33.5	33.5	57	19.9	0	1	270	0.00	30.124 
20:55	33.4	33.4	33.4	58	20.2	0	3	270	0.00	30.124 
21:00	33.2	33.2	33.2	58	20.0	0	1	292	0.00	30.131 
21:05	33.1	33.1	33.1	59	20.4	0	1	292	0.00	30.131 
21:10	32.9	32.9	32.9	59	20.2	0	1	292	0.00	30.131 
21:15	32.7	32.7	32.7	59	20.0	0	1	292	0.00	30.132 
21:20	32.7	32.7	32.7	59	20.0	0	1	292	0.00	30.132 
21:25	32.7	32.7	32.7	59	20.0	0	1	292	0.00	30.132 
21:30	32.7	32.7	32.7	59	20.0	0	1	292	0.00	30.141 
21:35	32.7	32.7	32.7	59	20.0	0	1	292	0.00	30.141 
21:40	32.5	32.5	32.5	60	20.2	0	1	292	0.00	30.141 
21:45	32.1	32.1	32.1	61	20.2	0	0	---	0.00	30.148 
21:50	31.8	31.8	31.8	62	20.3	0	1	292	0.00	30.148 
21:55	31.5	31.5	31.5	62	20.0	0	1	292	0.00	30.148 
22:00	31.3	31.3	31.3	62	19.8	0	1	292	0.00	30.150 
22:05	31.2	31.2	31.2	63	20.1	0	0	---	0.00	30.150 
22:10	31.0	31.0	31.0	63	19.9	0	0	---	0.00	30.150 
22:15	30.7	30.7	30.7	64	20.0	0	0	---	0.00	30.152 
22:20	30.6	30.6	30.6	64	19.9	0	0	---	0.00	30.152 
22:25	30.6	30.6	30.6	63	19.5	0	1	292	0.00	30.152 
22:30	30.4	30.4	30.4	63	19.3	0	0	---	0.00	30.150 
22:35	30.4	30.4	30.4	63	19.3	0	1	292	0.00	30.150 
22:40	30.4	30.4	30.4	63	19.3	0	0	---	0.00	30.150 
22:45	30.4	30.4	30.4	62	19.0	0	1	292	0.00	30.148 
22:50	30.6	30.6	30.6	61	18.8	0	1	292	0.00	30.148 
22:55	30.7	30.7	30.7	60	18.5	0	2	292	0.00	30.148 
23:00	30.9	30.9	30.9	59	18.3	0	2	292	0.00	30.148 
23:05	31.0	31.0	31.0	58	18.0	0	1	248	0.00	30.148 
23:10	31.2	31.2	31.2	58	18.2	0	1	248	0.00	30.148 
23:15	31.2	31.2	31.2	58	18.2	0	1	248	0.00	30.146 
23:20	31.2	31.2	31.2	58	18.2	0	1	248	0.00	30.146 
23:25	31.2	31.2	31.2	57	17.8	0	1	248	0.00	30.146 
23:30	31.2	31.2	31.2	57	17.8	0	2	248	0.00	30.144 
23:35	31.2	31.2	31.2	56	17.4	0	2	248	0.00	30.144 
23:40	31.2	31.2	31.2	56	17.4	0	2	248	0.00	30.144 
23:45	31.3	31.3	31.3	55	17.0	1	5	248	0.00	30.145 
23:50	31.5	31.5	31.5	55	17.2	1	5	248	0.00	30.145 
23:55	31.6	31.6	31.6	54	16.9	1	4	270	0.00	30.145 

CoCoRaHS
IN-AL-39
A2 Web Hosting
Creative Commons License
GoDaddy
Look for:

loaded 2017-10-20 20:01:04 • last modified 2010-11-18 10:43:29
Privacy PolicyDisclaimer
• wx.awcolley.com is powered by PmWiki v.2002016 •
• all content (unless otherwise noted) © 2017 A W Colley